sensor_id;sensor_type;location;lat;lon;timestamp;P1;durP1;ratioP1;P2;durP2;ratioP2
59008;SDS011;44794;42.652;23.318;2023-05-29T00:01:24;14.93;;;9.60;;
59008;SDS011;44794;42.652;23.318;2023-05-29T00:03:50;15.25;;;10.13;;
59008;SDS011;44794;42.652;23.318;2023-05-29T00:06:16;14.60;;;9.55;;
59008;SDS011;44794;42.652;23.318;2023-05-29T00:08:41;14.93;;;9.93;;
59008;SDS011;44794;42.652;23.318;2023-05-29T00:11:07;14.80;;;10.18;;
59008;SDS011;44794;42.652;23.318;2023-05-29T00:13:33;15.13;;;9.77;;
59008;SDS011;44794;42.652;23.318;2023-05-29T00:15:58;12.90;;;9.73;;
59008;SDS011;44794;42.652;23.318;2023-05-29T00:18:25;14.07;;;9.82;;
59008;SDS011;44794;42.652;23.318;2023-05-29T00:20:52;13.52;;;9.65;;
59008;SDS011;44794;42.652;23.318;2023-05-29T00:23:18;14.52;;;10.10;;
59008;SDS011;44794;42.652;23.318;2023-05-29T00:25:44;17.17;;;10.45;;
59008;SDS011;44794;42.652;23.318;2023-05-29T00:28:09;16.13;;;10.38;;
59008;SDS011;44794;42.652;23.318;2023-05-29T00:30:37;15.73;;;9.75;;
59008;SDS011;44794;42.652;23.318;2023-05-29T00:33:02;16.13;;;9.70;;
59008;SDS011;44794;42.652;23.318;2023-05-29T00:35:28;13.82;;;9.73;;
59008;SDS011;44794;42.652;23.318;2023-05-29T00:37:53;14.13;;;9.98;;
59008;SDS011;44794;42.652;23.318;2023-05-29T00:40:18;17.20;;;10.35;;
59008;SDS011;44794;42.652;23.318;2023-05-29T00:42:44;16.05;;;10.88;;
59008;SDS011;44794;42.652;23.318;2023-05-29T00:45:09;17.20;;;10.93;;
59008;SDS011;44794;42.652;23.318;2023-05-29T00:47:36;17.40;;;10.65;;
59008;SDS011;44794;42.652;23.318;2023-05-29T00:50:03;14.65;;;10.60;;
59008;SDS011;44794;42.652;23.318;2023-05-29T00:52:29;19.20;;;10.25;;
59008;SDS011;44794;42.652;23.318;2023-05-29T00:54:55;17.02;;;10.18;;
59008;SDS011;44794;42.652;23.318;2023-05-29T00:57:21;18.65;;;11.00;;
59008;SDS011;44794;42.652;23.318;2023-05-29T00:59:47;16.88;;;10.82;;
59008;SDS011;44794;42.652;23.318;2023-05-29T01:02:14;16.02;;;10.70;;
59008;SDS011;44794;42.652;23.318;2023-05-29T01:04:41;18.85;;;11.15;;
59008;SDS011;44794;42.652;23.318;2023-05-29T01:07:10;17.52;;;10.93;;
59008;SDS011;44794;42.652;23.318;2023-05-29T01:09:35;15.07;;;10.77;;
59008;SDS011;44794;42.652;23.318;2023-05-29T01:12:14;17.25;;;11.68;;
59008;SDS011;44794;42.652;23.318;2023-05-29T01:17:28;17.88;;;11.20;;
59008;SDS011;44794;42.652;23.318;2023-05-29T01:25:23;17.45;;;11.43;;
59008;SDS011;44794;42.652;23.318;2023-05-29T01:28:10;15.52;;;10.70;;
59008;SDS011;44794;42.652;23.318;2023-05-29T01:30:38;20.00;;;11.35;;
59008;SDS011;44794;42.652;23.318;2023-05-29T01:33:05;18.20;;;12.18;;
59008;SDS011;44794;42.652;23.318;2023-05-29T01:35:31;19.20;;;11.90;;
59008;SDS011;44794;42.652;23.318;2023-05-29T01:37:56;17.60;;;12.10;;
59008;SDS011;44794;42.652;23.318;2023-05-29T01:40:22;21.02;;;13.02;;
59008;SDS011;44794;42.652;23.318;2023-05-29T01:42:47;19.25;;;12.35;;
59008;SDS011;44794;42.652;23.318;2023-05-29T01:45:14;19.23;;;13.07;;
59008;SDS011;44794;42.652;23.318;2023-05-29T01:47:42;20.42;;;13.10;;
59008;SDS011;44794;42.652;23.318;2023-05-29T01:50:08;21.58;;;13.10;;
59008;SDS011;44794;42.652;23.318;2023-05-29T01:52:34;20.92;;;13.60;;
59008;SDS011;44794;42.652;23.318;2023-05-29T01:55:00;22.80;;;13.70;;
59008;SDS011;44794;42.652;23.318;2023-05-29T01:57:25;24.33;;;14.38;;
59008;SDS011;44794;42.652;23.318;2023-05-29T01:59:51;24.80;;;15.23;;
59008;SDS011;44794;42.652;23.318;2023-05-29T02:02:17;24.75;;;14.70;;
59008;SDS011;44794;42.652;23.318;2023-05-29T02:04:43;24.92;;;14.02;;
59008;SDS011;44794;42.652;23.318;2023-05-29T02:07:08;21.05;;;13.52;;
59008;SDS011;44794;42.652;23.318;2023-05-29T02:09:34;17.65;;;12.88;;
59008;SDS011;44794;42.652;23.318;2023-05-29T02:12:00;21.98;;;12.98;;
59008;SDS011;44794;42.652;23.318;2023-05-29T02:14:26;21.23;;;13.93;;
59008;SDS011;44794;42.652;23.318;2023-05-29T02:16:52;21.27;;;13.82;;
59008;SDS011;44794;42.652;23.318;2023-05-29T02:19:20;22.20;;;14.02;;
59008;SDS011;44794;42.652;23.318;2023-05-29T02:21:46;18.00;;;12.73;;
59008;SDS011;44794;42.652;23.318;2023-05-29T02:24:13;19.52;;;13.05;;
59008;SDS011;44794;42.652;23.318;2023-05-29T02:26:38;25.13;;;13.23;;
59008;SDS011;44794;42.652;23.318;2023-05-29T02:29:04;19.92;;;13.10;;
59008;SDS011;44794;42.652;23.318;2023-05-29T02:31:32;19.80;;;13.07;;
59008;SDS011;44794;42.652;23.318;2023-05-29T02:33:57;20.15;;;13.00;;
59008;SDS011;44794;42.652;23.318;2023-05-29T02:36:23;22.05;;;13.32;;
59008;SDS011;44794;42.652;23.318;2023-05-29T02:38:48;20.83;;;13.43;;
59008;SDS011;44794;42.652;23.318;2023-05-29T02:41:13;22.50;;;14.93;;
59008;SDS011;44794;42.652;23.318;2023-05-29T02:43:39;22.13;;;15.52;;
59008;SDS011;44794;42.652;23.318;2023-05-29T02:46:04;24.20;;;15.88;;
59008;SDS011;44794;42.652;23.318;2023-05-29T02:48:30;31.05;;;18.40;;
59008;SDS011;44794;42.652;23.318;2023-05-29T02:50:55;29.98;;;18.63;;
59008;SDS011;44794;42.652;23.318;2023-05-29T02:53:21;30.10;;;18.30;;
59008;SDS011;44794;42.652;23.318;2023-05-29T02:55:46;28.75;;;17.05;;
59008;SDS011;44794;42.652;23.318;2023-05-29T02:58:13;29.08;;;17.15;;
59008;SDS011;44794;42.652;23.318;2023-05-29T03:00:38;23.05;;;16.17;;
59008;SDS011;44794;42.652;23.318;2023-05-29T03:03:04;28.15;;;16.50;;
59008;SDS011;44794;42.652;23.318;2023-05-29T03:05:29;25.98;;;16.90;;
59008;SDS011;44794;42.652;23.318;2023-05-29T03:07:55;26.83;;;16.25;;
59008;SDS011;44794;42.652;23.318;2023-05-29T03:10:20;23.52;;;15.13;;
59008;SDS011;44794;42.652;23.318;2023-05-29T03:12:47;28.00;;;14.98;;
59008;SDS011;44794;42.652;23.318;2023-05-29T03:15:12;25.40;;;14.75;;
59008;SDS011;44794;42.652;23.318;2023-05-29T03:17:38;21.83;;;14.55;;
59008;SDS011;44794;42.652;23.318;2023-05-29T03:20:03;23.35;;;15.05;;
59008;SDS011;44794;42.652;23.318;2023-05-29T03:22:35;22.50;;;14.57;;
59008;SDS011;44794;42.652;23.318;2023-05-29T03:25:02;19.73;;;14.40;;
59008;SDS011;44794;42.652;23.318;2023-05-29T03:27:28;22.92;;;13.57;;
59008;SDS011;44794;42.652;23.318;2023-05-29T03:29:54;21.10;;;12.68;;
59008;SDS011;44794;42.652;23.318;2023-05-29T03:32:20;23.67;;;12.70;;
59008;SDS011;44794;42.652;23.318;2023-05-29T03:34:46;18.08;;;12.43;;
59008;SDS011;44794;42.652;23.318;2023-05-29T03:37:12;18.30;;;12.10;;
59008;SDS011;44794;42.652;23.318;2023-05-29T03:39:38;25.13;;;13.40;;
59008;SDS011;44794;42.652;23.318;2023-05-29T03:42:03;16.73;;;10.13;;
59008;SDS011;44794;42.652;23.318;2023-05-29T03:44:29;17.63;;;11.43;;
59008;SDS011;44794;42.652;23.318;2023-05-29T03:46:55;16.70;;;10.82;;
59008;SDS011;44794;42.652;23.318;2023-05-29T03:49:20;18.42;;;11.02;;
59008;SDS011;44794;42.652;23.318;2023-05-29T03:51:46;15.15;;;10.65;;
59008;SDS011;44794;42.652;23.318;2023-05-29T03:54:11;18.52;;;10.43;;
59008;SDS011;44794;42.652;23.318;2023-05-29T03:56:36;20.92;;;10.38;;
59008;SDS011;44794;42.652;23.318;2023-05-29T03:59:02;16.15;;;9.73;;
59008;SDS011;44794;42.652;23.318;2023-05-29T04:01:27;14.05;;;10.45;;
59008;SDS011;44794;42.652;23.318;2023-05-29T04:03:53;13.48;;;9.52;;
59008;SDS011;44794;42.652;23.318;2023-05-29T04:06:19;12.77;;;9.70;;
59008;SDS011;44794;42.652;23.318;2023-05-29T04:08:45;14.65;;;9.77;;
59008;SDS011;44794;42.652;23.318;2023-05-29T04:11:10;14.90;;;9.90;;
59008;SDS011;44794;42.652;23.318;2023-05-29T04:13:37;14.93;;;9.38;;
59008;SDS011;44794;42.652;23.318;2023-05-29T04:16:02;14.23;;;9.40;;
59008;SDS011;44794;42.652;23.318;2023-05-29T04:18:28;11.23;;;7.85;;
59008;SDS011;44794;42.652;23.318;2023-05-29T04:20:53;14.07;;;9.70;;
59008;SDS011;44794;42.652;23.318;2023-05-29T04:23:19;15.63;;;8.77;;
59008;SDS011;44794;42.652;23.318;2023-05-29T04:25:45;20.08;;;9.13;;
59008;SDS011;44794;42.652;23.318;2023-05-29T04:28:11;20.42;;;9.75;;
59008;SDS011;44794;42.652;23.318;2023-05-29T04:30:37;16.40;;;8.43;;
59008;SDS011;44794;42.652;23.318;2023-05-29T04:33:04;10.30;;;8.00;;
59008;SDS011;44794;42.652;23.318;2023-05-29T04:35:30;21.42;;;9.25;;
59008;SDS011;44794;42.652;23.318;2023-05-29T04:37:55;23.80;;;9.82;;
59008;SDS011;44794;42.652;23.318;2023-05-29T04:40:21;17.10;;;9.63;;
59008;SDS011;44794;42.652;23.318;2023-05-29T04:42:47;19.55;;;8.55;;
59008;SDS011;44794;42.652;23.318;2023-05-29T04:45:13;29.25;;;9.80;;
59008;SDS011;44794;42.652;23.318;2023-05-29T04:47:38;25.98;;;9.48;;
59008;SDS011;44794;42.652;23.318;2023-05-29T04:50:09;23.67;;;9.70;;
59008;SDS011;44794;42.652;23.318;2023-05-29T04:52:38;31.08;;;9.60;;
59008;SDS011;44794;42.652;23.318;2023-05-29T04:55:04;34.25;;;8.40;;
59008;SDS011;44794;42.652;23.318;2023-05-29T04:57:30;29.02;;;9.18;;
59008;SDS011;44794;42.652;23.318;2023-05-29T04:59:56;24.45;;;8.95;;
59008;SDS011;44794;42.652;23.318;2023-05-29T05:02:21;21.67;;;8.95;;
59008;SDS011;44794;42.652;23.318;2023-05-29T05:04:47;23.33;;;9.23;;
59008;SDS011;44794;42.652;23.318;2023-05-29T05:07:15;16.08;;;8.43;;
59008;SDS011;44794;42.652;23.318;2023-05-29T05:09:41;16.10;;;8.38;;
59008;SDS011;44794;42.652;23.318;2023-05-29T05:12:07;13.52;;;7.40;;
59008;SDS011;44794;42.652;23.318;2023-05-29T05:14:32;12.68;;;7.20;;
59008;SDS011;44794;42.652;23.318;2023-05-29T05:16:59;11.00;;;5.93;;
59008;SDS011;44794;42.652;23.318;2023-05-29T05:19:25;10.25;;;5.65;;
59008;SDS011;44794;42.652;23.318;2023-05-29T05:21:50;10.60;;;5.45;;
59008;SDS011;44794;42.652;23.318;2023-05-29T05:24:16;13.18;;;5.47;;
59008;SDS011;44794;42.652;23.318;2023-05-29T05:26:41;17.58;;;6.18;;
59008;SDS011;44794;42.652;23.318;2023-05-29T05:29:07;10.20;;;5.28;;
59008;SDS011;44794;42.652;23.318;2023-05-29T05:31:32;9.13;;;5.82;;
59008;SDS011;44794;42.652;23.318;2023-05-29T05:33:57;12.05;;;5.40;;
59008;SDS011;44794;42.652;23.318;2023-05-29T05:36:23;12.05;;;6.10;;
59008;SDS011;44794;42.652;23.318;2023-05-29T05:38:48;12.27;;;6.07;;
59008;SDS011;44794;42.652;23.318;2023-05-29T05:41:14;13.43;;;5.95;;
59008;SDS011;44794;42.652;23.318;2023-05-29T05:43:39;14.13;;;6.30;;
59008;SDS011;44794;42.652;23.318;2023-05-29T05:46:05;10.35;;;6.28;;
59008;SDS011;44794;42.652;23.318;2023-05-29T05:48:30;8.77;;;5.40;;
59008;SDS011;44794;42.652;23.318;2023-05-29T05:50:56;11.70;;;5.85;;
59008;SDS011;44794;42.652;23.318;2023-05-29T05:53:21;7.88;;;4.80;;
59008;SDS011;44794;42.652;23.318;2023-05-29T05:55:47;9.55;;;5.60;;
59008;SDS011;44794;42.652;23.318;2023-05-29T05:58:12;13.15;;;5.93;;
59008;SDS011;44794;42.652;23.318;2023-05-29T06:00:39;14.73;;;5.88;;
59008;SDS011;44794;42.652;23.318;2023-05-29T06:03:05;10.55;;;5.35;;
59008;SDS011;44794;42.652;23.318;2023-05-29T06:05:30;8.57;;;4.53;;
59008;SDS011;44794;42.652;23.318;2023-05-29T06:07:56;7.00;;;4.32;;
59008;SDS011;44794;42.652;23.318;2023-05-29T06:10:22;11.02;;;5.03;;
59008;SDS011;44794;42.652;23.318;2023-05-29T06:12:47;10.10;;;4.78;;
59008;SDS011;44794;42.652;23.318;2023-05-29T06:15:13;9.02;;;4.93;;
59008;SDS011;44794;42.652;23.318;2023-05-29T06:17:38;10.57;;;5.18;;
59008;SDS011;44794;42.652;23.318;2023-05-29T06:20:04;10.77;;;5.30;;
59008;SDS011;44794;42.652;23.318;2023-05-29T06:22:38;8.32;;;4.63;;
59008;SDS011;44794;42.652;23.318;2023-05-29T06:25:04;8.25;;;4.50;;
59008;SDS011;44794;42.652;23.318;2023-05-29T06:27:29;8.55;;;4.47;;
59008;SDS011;44794;42.652;23.318;2023-05-29T06:29:55;7.05;;;4.32;;
59008;SDS011;44794;42.652;23.318;2023-05-29T06:32:21;8.30;;;3.90;;
59008;SDS011;44794;42.652;23.318;2023-05-29T06:34:47;8.65;;;4.13;;
59008;SDS011;44794;42.652;23.318;2023-05-29T06:37:12;7.35;;;4.07;;
59008;SDS011;44794;42.652;23.318;2023-05-29T06:39:38;8.68;;;4.07;;
59008;SDS011;44794;42.652;23.318;2023-05-29T06:42:07;7.38;;;3.60;;
59008;SDS011;44794;42.652;23.318;2023-05-29T06:44:33;6.65;;;3.58;;
59008;SDS011;44794;42.652;23.318;2023-05-29T06:46:58;7.57;;;4.47;;
59008;SDS011;44794;42.652;23.318;2023-05-29T06:49:24;4.78;;;3.40;;
59008;SDS011;44794;42.652;23.318;2023-05-29T06:51:49;9.85;;;3.47;;
59008;SDS011;44794;42.652;23.318;2023-05-29T06:54:15;7.85;;;3.00;;
59008;SDS011;44794;42.652;23.318;2023-05-29T06:56:41;6.18;;;3.78;;
59008;SDS011;44794;42.652;23.318;2023-05-29T06:59:07;6.45;;;3.17;;
59008;SDS011;44794;42.652;23.318;2023-05-29T07:01:32;4.28;;;2.70;;
59008;SDS011;44794;42.652;23.318;2023-05-29T07:03:58;4.45;;;2.58;;
59008;SDS011;44794;42.652;23.318;2023-05-29T07:06:23;3.17;;;2.42;;
59008;SDS011;44794;42.652;23.318;2023-05-29T07:08:48;5.40;;;2.83;;
59008;SDS011;44794;42.652;23.318;2023-05-29T07:11:14;3.33;;;2.55;;
59008;SDS011;44794;42.652;23.318;2023-05-29T07:13:39;3.50;;;3.10;;
59008;SDS011;44794;42.652;23.318;2023-05-29T07:16:05;7.30;;;3.72;;
59008;SDS011;44794;42.652;23.318;2023-05-29T07:18:31;6.03;;;4.05;;
59008;SDS011;44794;42.652;23.318;2023-05-29T07:20:56;6.13;;;3.83;;
59008;SDS011;44794;42.652;23.318;2023-05-29T07:23:22;10.73;;;4.50;;
59008;SDS011;44794;42.652;23.318;2023-05-29T07:25:49;5.93;;;3.55;;
59008;SDS011;44794;42.652;23.318;2023-05-29T07:28:15;7.72;;;3.15;;
59008;SDS011;44794;42.652;23.318;2023-05-29T07:30:41;5.47;;;2.80;;
59008;SDS011;44794;42.652;23.318;2023-05-29T07:33:06;11.48;;;3.30;;
59008;SDS011;44794;42.652;23.318;2023-05-29T07:35:31;7.50;;;4.00;;
59008;SDS011;44794;42.652;23.318;2023-05-29T07:37:58;5.88;;;3.70;;
59008;SDS011;44794;42.652;23.318;2023-05-29T07:40:24;8.80;;;3.03;;
59008;SDS011;44794;42.652;23.318;2023-05-29T07:42:50;8.95;;;3.00;;
59008;SDS011;44794;42.652;23.318;2023-05-29T07:45:15;5.63;;;3.53;;
59008;SDS011;44794;42.652;23.318;2023-05-29T07:47:41;7.60;;;3.40;;
59008;SDS011;44794;42.652;23.318;2023-05-29T07:50:07;6.00;;;3.35;;
59008;SDS011;44794;42.652;23.318;2023-05-29T07:52:33;5.30;;;3.33;;
59008;SDS011;44794;42.652;23.318;2023-05-29T07:54:59;3.88;;;3.33;;
59008;SDS011;44794;42.652;23.318;2023-05-29T07:57:26;8.43;;;3.60;;
59008;SDS011;44794;42.652;23.318;2023-05-29T07:59:52;5.20;;;2.92;;
59008;SDS011;44794;42.652;23.318;2023-05-29T08:02:18;5.60;;;3.10;;
59008;SDS011;44794;42.652;23.318;2023-05-29T08:04:43;6.38;;;3.70;;
59008;SDS011;44794;42.652;23.318;2023-05-29T08:07:08;5.95;;;3.72;;
59008;SDS011;44794;42.652;23.318;2023-05-29T08:09:35;6.57;;;4.32;;
59008;SDS011;44794;42.652;23.318;2023-05-29T08:12:01;7.30;;;4.60;;
59008;SDS011;44794;42.652;23.318;2023-05-29T08:14:27;6.88;;;4.43;;
59008;SDS011;44794;42.652;23.318;2023-05-29T08:16:52;5.53;;;4.00;;
59008;SDS011;44794;42.652;23.318;2023-05-29T08:19:18;11.32;;;4.05;;
59008;SDS011;44794;42.652;23.318;2023-05-29T08:21:43;17.67;;;4.32;;
59008;SDS011;44794;42.652;23.318;2023-05-29T08:24:08;6.70;;;3.35;;
59008;SDS011;44794;42.652;23.318;2023-05-29T08:26:34;9.15;;;3.53;;
59008;SDS011;44794;42.652;23.318;2023-05-29T08:29:00;6.03;;;3.72;;
59008;SDS011;44794;42.652;23.318;2023-05-29T08:31:26;6.10;;;3.90;;
59008;SDS011;44794;42.652;23.318;2023-05-29T08:33:52;6.20;;;3.63;;
59008;SDS011;44794;42.652;23.318;2023-05-29T08:36:18;6.72;;;3.65;;
59008;SDS011;44794;42.652;23.318;2023-05-29T08:38:48;4.60;;;3.22;;
59008;SDS011;44794;42.652;23.318;2023-05-29T08:41:17;6.72;;;3.60;;
59008;SDS011;44794;42.652;23.318;2023-05-29T08:43:59;8.05;;;3.50;;
59008;SDS011;44794;42.652;23.318;2023-05-29T08:46:28;7.32;;;3.97;;
59008;SDS011;44794;42.652;23.318;2023-05-29T08:48:54;4.55;;;3.20;;
59008;SDS011;44794;42.652;23.318;2023-05-29T08:51:23;6.47;;;3.50;;
59008;SDS011;44794;42.652;23.318;2023-05-29T08:53:54;8.88;;;3.53;;
59008;SDS011;44794;42.652;23.318;2023-05-29T08:56:21;7.30;;;3.70;;
59008;SDS011;44794;42.652;23.318;2023-05-29T08:58:47;7.93;;;3.90;;
59008;SDS011;44794;42.652;23.318;2023-05-29T09:01:13;4.07;;;3.50;;
59008;SDS011;44794;42.652;23.318;2023-05-29T09:03:39;5.45;;;3.30;;
59008;SDS011;44794;42.652;23.318;2023-05-29T09:06:07;6.75;;;3.40;;
59008;SDS011;44794;42.652;23.318;2023-05-29T09:08:33;5.47;;;3.30;;
59008;SDS011;44794;42.652;23.318;2023-05-29T09:10:59;7.95;;;3.85;;
59008;SDS011;44794;42.652;23.318;2023-05-29T09:13:25;6.57;;;3.78;;
59008;SDS011;44794;42.652;23.318;2023-05-29T09:15:59;7.95;;;3.42;;
59008;SDS011;44794;42.652;23.318;2023-05-29T09:18:31;5.97;;;3.30;;
59008;SDS011;44794;42.652;23.318;2023-05-29T09:20:57;5.00;;;3.05;;
59008;SDS011;44794;42.652;23.318;2023-05-29T09:23:25;5.07;;;3.30;;
59008;SDS011;44794;42.652;23.318;2023-05-29T09:25:51;3.78;;;2.83;;
59008;SDS011;44794;42.652;23.318;2023-05-29T09:28:18;5.00;;;3.35;;
59008;SDS011;44794;42.652;23.318;2023-05-29T09:30:46;5.05;;;3.55;;
59008;SDS011;44794;42.652;23.318;2023-05-29T09:33:12;5.07;;;3.33;;
59008;SDS011;44794;42.652;23.318;2023-05-29T09:35:40;8.85;;;3.55;;
59008;SDS011;44794;42.652;23.318;2023-05-29T09:38:08;6.63;;;3.38;;
59008;SDS011;44794;42.652;23.318;2023-05-29T09:40:37;7.90;;;3.72;;
59008;SDS011;44794;42.652;23.318;2023-05-29T09:45:37;6.55;;;3.70;;
59008;SDS011;44794;42.652;23.318;2023-05-29T09:48:04;6.30;;;3.83;;
59008;SDS011;44794;42.652;23.318;2023-05-29T09:50:31;5.63;;;4.00;;
59008;SDS011;44794;42.652;23.318;2023-05-29T09:52:58;7.05;;;3.72;;
59008;SDS011;44794;42.652;23.318;2023-05-29T09:55:27;8.02;;;4.28;;
59008;SDS011;44794;42.652;23.318;2023-05-29T09:57:54;6.13;;;4.25;;
59008;SDS011;44794;42.652;23.318;2023-05-29T10:00:20;7.10;;;4.15;;
59008;SDS011;44794;42.652;23.318;2023-05-29T10:02:49;5.63;;;4.43;;
59008;SDS011;44794;42.652;23.318;2023-05-29T10:05:15;5.53;;;3.53;;
59008;SDS011;44794;42.652;23.318;2023-05-29T10:07:43;7.07;;;4.07;;
59008;SDS011;44794;42.652;23.318;2023-05-29T10:10:12;10.60;;;3.88;;
59008;SDS011;44794;42.652;23.318;2023-05-29T10:12:39;6.68;;;3.85;;
59008;SDS011;44794;42.652;23.318;2023-05-29T10:15:13;9.65;;;4.05;;
59008;SDS011;44794;42.652;23.318;2023-05-29T10:17:39;6.35;;;3.63;;
59008;SDS011;44794;42.652;23.318;2023-05-29T10:20:22;5.85;;;4.03;;
59008;SDS011;44794;42.652;23.318;2023-05-29T10:22:49;8.23;;;4.10;;
59008;SDS011;44794;42.652;23.318;2023-05-29T10:25:19;5.75;;;3.63;;
59008;SDS011;44794;42.652;23.318;2023-05-29T10:27:46;5.80;;;3.85;;
59008;SDS011;44794;42.652;23.318;2023-05-29T10:30:20;14.63;;;3.72;;
59008;SDS011;44794;42.652;23.318;2023-05-29T10:35:40;4.35;;;3.80;;
59008;SDS011;44794;42.652;23.318;2023-05-29T10:40:38;7.05;;;4.15;;
59008;SDS011;44794;42.652;23.318;2023-05-29T10:43:04;5.15;;;3.72;;
59008;SDS011;44794;42.652;23.318;2023-05-29T10:50:43;4.55;;;3.65;;
59008;SDS011;44794;42.652;23.318;2023-05-29T10:53:10;9.15;;;3.85;;
59008;SDS011;44794;42.652;23.318;2023-05-29T10:55:41;9.52;;;3.88;;
59008;SDS011;44794;42.652;23.318;2023-05-29T11:00:40;7.03;;;4.18;;
59008;SDS011;44794;42.652;23.318;2023-05-29T11:03:10;10.00;;;4.00;;
59008;SDS011;44794;42.652;23.318;2023-05-29T11:05:55;7.28;;;3.90;;
59008;SDS011;44794;42.652;23.318;2023-05-29T11:08:33;7.47;;;4.50;;
59008;SDS011;44794;42.652;23.318;2023-05-29T11:11:03;11.98;;;5.30;;
59008;SDS011;44794;42.652;23.318;2023-05-29T11:13:31;9.52;;;4.65;;
59008;SDS011;44794;42.652;23.318;2023-05-29T11:16:16;6.80;;;4.60;;
59008;SDS011;44794;42.652;23.318;2023-05-29T11:18:46;13.43;;;5.13;;
59008;SDS011;44794;42.652;23.318;2023-05-29T11:21:15;10.30;;;5.38;;
59008;SDS011;44794;42.652;23.318;2023-05-29T11:23:51;9.07;;;5.05;;
59008;SDS011;44794;42.652;23.318;2023-05-29T11:26:21;8.55;;;5.40;;
59008;SDS011;44794;42.652;23.318;2023-05-29T11:28:48;11.10;;;5.72;;
59008;SDS011;44794;42.652;23.318;2023-05-29T11:31:13;10.02;;;5.22;;
59008;SDS011;44794;42.652;23.318;2023-05-29T11:33:41;9.75;;;4.95;;
59008;SDS011;44794;42.652;23.318;2023-05-29T11:36:14;9.88;;;4.97;;
59008;SDS011;44794;42.652;23.318;2023-05-29T11:38:40;7.38;;;4.60;;
59008;SDS011;44794;42.652;23.318;2023-05-29T11:41:05;8.23;;;4.50;;
59008;SDS011;44794;42.652;23.318;2023-05-29T11:43:31;8.13;;;4.50;;
59008;SDS011;44794;42.652;23.318;2023-05-29T11:45:57;6.65;;;4.20;;
59008;SDS011;44794;42.652;23.318;2023-05-29T11:48:23;4.55;;;4.00;;
59008;SDS011;44794;42.652;23.318;2023-05-29T11:50:48;6.65;;;3.97;;
59008;SDS011;44794;42.652;23.318;2023-05-29T11:53:14;6.80;;;4.28;;
59008;SDS011;44794;42.652;23.318;2023-05-29T11:55:40;4.97;;;4.40;;
59008;SDS011;44794;42.652;23.318;2023-05-29T11:58:05;13.35;;;4.57;;
59008;SDS011;44794;42.652;23.318;2023-05-29T12:00:34;11.82;;;4.38;;
59008;SDS011;44794;42.652;23.318;2023-05-29T12:03:01;8.27;;;4.53;;
59008;SDS011;44794;42.652;23.318;2023-05-29T12:05:32;8.75;;;4.93;;
59008;SDS011;44794;42.652;23.318;2023-05-29T12:08:09;6.70;;;4.90;;
59008;SDS011;44794;42.652;23.318;2023-05-29T12:10:35;10.82;;;5.63;;
59008;SDS011;44794;42.652;23.318;2023-05-29T12:13:00;10.23;;;6.03;;
59008;SDS011;44794;42.652;23.318;2023-05-29T12:15:26;22.00;;;7.15;;
59008;SDS011;44794;42.652;23.318;2023-05-29T12:17:52;9.15;;;5.03;;
59008;SDS011;44794;42.652;23.318;2023-05-29T12:20:19;6.72;;;4.88;;
59008;SDS011;44794;42.652;23.318;2023-05-29T12:22:48;6.07;;;4.50;;
59008;SDS011;44794;42.652;23.318;2023-05-29T12:25:16;12.93;;;3.78;;
59008;SDS011;44794;42.652;23.318;2023-05-29T12:27:43;6.68;;;3.60;;
59008;SDS011;44794;42.652;23.318;2023-05-29T12:30:12;8.63;;;3.65;;
59008;SDS011;44794;42.652;23.318;2023-05-29T12:32:42;15.50;;;4.97;;
59008;SDS011;44794;42.652;23.318;2023-05-29T12:35:12;15.93;;;5.45;;
59008;SDS011;44794;42.652;23.318;2023-05-29T12:40:19;15.80;;;6.63;;
59008;SDS011;44794;42.652;23.318;2023-05-29T12:45:35;11.55;;;6.53;;
59008;SDS011;44794;42.652;23.318;2023-05-29T12:48:01;7.25;;;4.93;;
59008;SDS011;44794;42.652;23.318;2023-05-29T12:50:29;8.82;;;4.70;;
59008;SDS011;44794;42.652;23.318;2023-05-29T12:52:59;15.43;;;7.03;;
59008;SDS011;44794;42.652;23.318;2023-05-29T12:55:30;13.77;;;7.82;;
59008;SDS011;44794;42.652;23.318;2023-05-29T12:57:58;11.20;;;8.00;;
59008;SDS011;44794;42.652;23.318;2023-05-29T13:00:24;10.77;;;7.50;;
59008;SDS011;44794;42.652;23.318;2023-05-29T13:02:50;13.77;;;6.93;;
59008;SDS011;44794;42.652;23.318;2023-05-29T13:05:16;8.73;;;5.60;;
59008;SDS011;44794;42.652;23.318;2023-05-29T13:07:44;7.95;;;5.75;;
59008;SDS011;44794;42.652;23.318;2023-05-29T13:10:12;8.35;;;6.40;;
59008;SDS011;44794;42.652;23.318;2023-05-29T13:12:38;8.48;;;6.10;;
59008;SDS011;44794;42.652;23.318;2023-05-29T13:15:03;9.32;;;5.85;;
59008;SDS011;44794;42.652;23.318;2023-05-29T13:17:30;9.55;;;6.47;;
59008;SDS011;44794;42.652;23.318;2023-05-29T13:19:56;9.68;;;6.63;;
59008;SDS011;44794;42.652;23.318;2023-05-29T13:22:21;11.45;;;6.35;;
59008;SDS011;44794;42.652;23.318;2023-05-29T13:24:47;7.45;;;5.03;;
59008;SDS011;44794;42.652;23.318;2023-05-29T13:27:13;8.85;;;5.55;;
59008;SDS011;44794;42.652;23.318;2023-05-29T13:29:40;9.02;;;5.43;;
59008;SDS011;44794;42.652;23.318;2023-05-29T13:32:06;11.30;;;7.22;;
59008;SDS011;44794;42.652;23.318;2023-05-29T13:34:32;10.73;;;6.55;;
59008;SDS011;44794;42.652;23.318;2023-05-29T13:36:57;14.75;;;6.88;;
59008;SDS011;44794;42.652;23.318;2023-05-29T13:39:23;12.73;;;7.25;;
59008;SDS011;44794;42.652;23.318;2023-05-29T13:41:50;15.15;;;7.95;;
59008;SDS011;44794;42.652;23.318;2023-05-29T13:44:15;13.68;;;8.75;;
59008;SDS011;44794;42.652;23.318;2023-05-29T13:46:41;11.57;;;8.40;;
59008;SDS011;44794;42.652;23.318;2023-05-29T13:49:06;10.00;;;7.60;;
59008;SDS011;44794;42.652;23.318;2023-05-29T13:51:32;10.93;;;6.95;;
59008;SDS011;44794;42.652;23.318;2023-05-29T13:53:58;12.27;;;8.13;;
59008;SDS011;44794;42.652;23.318;2023-05-29T13:56:24;10.38;;;7.25;;
59008;SDS011;44794;42.652;23.318;2023-05-29T13:58:52;10.40;;;7.47;;
59008;SDS011;44794;42.652;23.318;2023-05-29T14:01:18;14.05;;;8.02;;
59008;SDS011;44794;42.652;23.318;2023-05-29T14:03:44;10.95;;;7.78;;
59008;SDS011;44794;42.652;23.318;2023-05-29T14:06:10;10.93;;;6.60;;
59008;SDS011;44794;42.652;23.318;2023-05-29T14:08:35;10.18;;;6.53;;
59008;SDS011;44794;42.652;23.318;2023-05-29T14:11:01;9.27;;;6.53;;
59008;SDS011;44794;42.652;23.318;2023-05-29T14:13:26;10.70;;;6.38;;
59008;SDS011;44794;42.652;23.318;2023-05-29T14:15:52;6.70;;;5.88;;
59008;SDS011;44794;42.652;23.318;2023-05-29T14:18:19;9.93;;;6.10;;
59008;SDS011;44794;42.652;23.318;2023-05-29T14:20:45;9.20;;;3.55;;
59008;SDS011;44794;42.652;23.318;2023-05-29T14:23:13;4.22;;;3.05;;
59008;SDS011;44794;42.652;23.318;2023-05-29T14:25:41;6.32;;;3.10;;
59008;SDS011;44794;42.652;23.318;2023-05-29T14:28:06;3.40;;;2.40;;
59008;SDS011;44794;42.652;23.318;2023-05-29T14:30:32;3.45;;;2.80;;
59008;SDS011;44794;42.652;23.318;2023-05-29T14:32:58;4.32;;;2.63;;
59008;SDS011;44794;42.652;23.318;2023-05-29T14:35:24;4.85;;;2.55;;
59008;SDS011;44794;42.652;23.318;2023-05-29T14:37:50;4.53;;;2.70;;
59008;SDS011;44794;42.652;23.318;2023-05-29T14:40:15;3.10;;;2.50;;
59008;SDS011;44794;42.652;23.318;2023-05-29T14:42:41;3.55;;;2.60;;
59008;SDS011;44794;42.652;23.318;2023-05-29T14:45:06;3.67;;;2.58;;
59008;SDS011;44794;42.652;23.318;2023-05-29T14:47:32;3.40;;;2.58;;
59008;SDS011;44794;42.652;23.318;2023-05-29T14:49:58;5.20;;;2.72;;